sensor_id;sensor_type;location;lat;lon;timestamp;pressure;altitude;pressure_sealevel;temperature;humidity
22259;BME280;11298;46.034;14.496;2022-12-26T00:01:59;98804.25;;;10.46;86.47
22259;BME280;11298;46.034;14.496;2022-12-26T00:04:27;98792.72;;;10.44;86.62
22259;BME280;11298;46.034;14.496;2022-12-26T00:07:15;98786.28;;;10.45;86.56
22259;BME280;11298;46.034;14.496;2022-12-26T00:09:44;98788.78;;;10.46;86.55
22259;BME280;11298;46.034;14.496;2022-12-26T00:12:12;98781.28;;;10.48;86.65
22259;BME280;11298;46.034;14.496;2022-12-26T00:14:41;98782.13;;;10.49;86.70
22259;BME280;11298;46.034;14.496;2022-12-26T00:17:09;98786.50;;;10.50;86.61
22259;BME280;11298;46.034;14.496;2022-12-26T00:19:38;98776.69;;;10.49;86.41
22259;BME280;11298;46.034;14.496;2022-12-26T00:22:06;98777.72;;;10.48;86.52
22259;BME280;11298;46.034;14.496;2022-12-26T00:24:34;98781.28;;;10.48;86.38
22259;BME280;11298;46.034;14.496;2022-12-26T00:27:03;98776.25;;;10.45;86.65
22259;BME280;11298;46.034;14.496;2022-12-26T00:29:30;98781.22;;;10.41;86.78
22259;BME280;11298;46.034;14.496;2022-12-26T00:31:58;98791.25;;;10.41;86.64
22259;BME280;11298;46.034;14.496;2022-12-26T00:34:26;98783.34;;;10.39;86.60
22259;BME280;11298;46.034;14.496;2022-12-26T00:36:56;98780.81;;;10.38;86.85
22259;BME280;11298;46.034;14.496;2022-12-26T00:39:26;98782.69;;;10.37;87.01
22259;BME280;11298;46.034;14.496;2022-12-26T00:41:54;98779.34;;;10.35;86.74
22259;BME280;11298;46.034;14.496;2022-12-26T00:44:22;98787.69;;;10.34;86.86
22259;BME280;11298;46.034;14.496;2022-12-26T00:46:52;98787.03;;;10.32;86.87
22259;BME280;11298;46.034;14.496;2022-12-26T00:49:19;98787.22;;;10.30;87.16
22259;BME280;11298;46.034;14.496;2022-12-26T00:51:47;98783.69;;;10.30;87.12
22259;BME280;11298;46.034;14.496;2022-12-26T00:57:10;98788.72;;;10.33;87.08
22259;BME280;11298;46.034;14.496;2022-12-26T00:59:40;98791.25;;;10.34;87.34
22259;BME280;11298;46.034;14.496;2022-12-26T01:02:07;98785.59;;;10.36;87.29
22259;BME280;11298;46.034;14.496;2022-12-26T01:04:57;98784.38;;;10.38;87.38
22259;BME280;11298;46.034;14.496;2022-12-26T01:07:25;98787.50;;;10.42;87.45
22259;BME280;11298;46.034;14.496;2022-12-26T01:09:55;98786.91;;;10.47;87.33
22259;BME280;11298;46.034;14.496;2022-12-26T01:12:23;98792.97;;;10.49;87.29
22259;BME280;11298;46.034;14.496;2022-12-26T01:14:57;98788.84;;;10.53;87.17
22259;BME280;11298;46.034;14.496;2022-12-26T01:17:26;98799.09;;;10.57;87.05
22259;BME280;11298;46.034;14.496;2022-12-26T01:19:54;98790.56;;;10.60;87.06
22259;BME280;11298;46.034;14.496;2022-12-26T01:22:22;98793.72;;;10.64;87.13
22259;BME280;11298;46.034;14.496;2022-12-26T01:24:54;98802.31;;;10.67;87.05
22259;BME280;11298;46.034;14.496;2022-12-26T01:27:23;98801.72;;;10.72;86.83
22259;BME280;11298;46.034;14.496;2022-12-26T01:29:56;98804.00;;;10.75;86.84
22259;BME280;11298;46.034;14.496;2022-12-26T01:32:23;98803.59;;;10.78;86.77
22259;BME280;11298;46.034;14.496;2022-12-26T01:34:52;98806.56;;;10.83;86.41
22259;BME280;11298;46.034;14.496;2022-12-26T01:37:28;98804.47;;;10.85;86.22
22259;BME280;11298;46.034;14.496;2022-12-26T01:39:56;98797.81;;;10.88;86.08
22259;BME280;11298;46.034;14.496;2022-12-26T01:42:25;98807.44;;;10.90;85.99
22259;BME280;11298;46.034;14.496;2022-12-26T01:47:44;98801.19;;;10.96;85.63
22259;BME280;11298;46.034;14.496;2022-12-26T01:50:34;98798.28;;;10.98;85.37
22259;BME280;11298;46.034;14.496;2022-12-26T01:53:07;98805.19;;;11.00;85.22
22259;BME280;11298;46.034;14.496;2022-12-26T01:55:37;98798.72;;;11.01;85.20
22259;BME280;11298;46.034;14.496;2022-12-26T01:58:15;98797.69;;;11.02;84.87
22259;BME280;11298;46.034;14.496;2022-12-26T02:00:53;98796.66;;;11.03;84.60
22259;BME280;11298;46.034;14.496;2022-12-26T02:03:23;98800.84;;;11.06;84.54
22259;BME280;11298;46.034;14.496;2022-12-26T02:06:11;98795.41;;;11.06;84.40
22259;BME280;11298;46.034;14.496;2022-12-26T02:08:40;98790.81;;;11.06;84.17
22259;BME280;11298;46.034;14.496;2022-12-26T02:11:20;98796.03;;;11.08;83.93
22259;BME280;11298;46.034;14.496;2022-12-26T02:13:52;98792.47;;;11.07;83.76
22259;BME280;11298;46.034;14.496;2022-12-26T02:16:20;98788.72;;;11.08;83.30
22259;BME280;11298;46.034;14.496;2022-12-26T02:18:50;98793.72;;;11.12;83.29
22259;BME280;11298;46.034;14.496;2022-12-26T02:24:10;98779.09;;;11.13;82.99
22259;BME280;11298;46.034;14.496;2022-12-26T02:26:48;98778.25;;;11.12;82.79
22259;BME280;11298;46.034;14.496;2022-12-26T02:32:20;98783.69;;;11.12;82.67
22259;BME280;11298;46.034;14.496;2022-12-26T02:37:47;98789.97;;;11.13;82.10
22259;BME280;11298;46.034;14.496;2022-12-26T02:40:35;98782.66;;;11.13;82.10
22259;BME280;11298;46.034;14.496;2022-12-26T02:51:42;98784.34;;;11.14;81.87
22259;BME280;11298;46.034;14.496;2022-12-26T03:00:37;98787.25;;;11.13;81.26
22259;BME280;11298;46.034;14.496;2022-12-26T03:03:31;98773.66;;;11.13;81.24
22259;BME280;11298;46.034;14.496;2022-12-26T03:06:26;98784.53;;;11.13;81.07
22259;BME280;11298;46.034;14.496;2022-12-26T03:15:16;98789.97;;;11.13;80.78
22259;BME280;11298;46.034;14.496;2022-12-26T03:17:53;98785.56;;;11.12;80.85
22259;BME280;11298;46.034;14.496;2022-12-26T03:20:25;98786.41;;;11.12;80.95
22259;BME280;11298;46.034;14.496;2022-12-26T03:22:57;98779.94;;;11.13;80.75
22259;BME280;11298;46.034;14.496;2022-12-26T03:25:36;98780.78;;;11.14;80.97
22259;BME280;11298;46.034;14.496;2022-12-26T03:28:28;98779.09;;;11.13;80.88
22259;BME280;11298;46.034;14.496;2022-12-26T03:30:56;98778.25;;;11.12;80.61
22259;BME280;11298;46.034;14.496;2022-12-26T03:33:32;98778.25;;;11.12;80.63
22259;BME280;11298;46.034;14.496;2022-12-26T03:41:41;98784.72;;;11.11;80.59
22259;BME280;11298;46.034;14.496;2022-12-26T03:50:53;98782.44;;;11.15;80.55
22259;BME280;11298;46.034;14.496;2022-12-26T03:53:44;98787.88;;;11.15;80.47
22259;BME280;11298;46.034;14.496;2022-12-26T03:56:50;98794.59;;;11.19;80.33
22259;BME280;11298;46.034;14.496;2022-12-26T03:59:46;98791.88;;;11.19;80.33
22259;BME280;11298;46.034;14.496;2022-12-26T04:02:40;98790.84;;;11.20;80.16
22259;BME280;11298;46.034;14.496;2022-12-26T04:05:32;98792.50;;;11.21;80.13
22259;BME280;11298;46.034;14.496;2022-12-26T04:08:23;98796.91;;;11.22;79.95
22259;BME280;11298;46.034;14.496;2022-12-26T04:11:14;98792.13;;;11.24;79.89
22259;BME280;11298;46.034;14.496;2022-12-26T04:20:15;98791.28;;;11.23;79.53
22259;BME280;11298;46.034;14.496;2022-12-26T04:22:51;98792.13;;;11.24;79.51
22259;BME280;11298;46.034;14.496;2022-12-26T04:25:57;98784.59;;;11.26;79.68
22259;BME280;11298;46.034;14.496;2022-12-26T04:28:45;98787.94;;;11.28;79.28
22259;BME280;11298;46.034;14.496;2022-12-26T04:38:15;98783.16;;;11.30;79.04
22259;BME280;11298;46.034;14.496;2022-12-26T04:41:05;98786.69;;;11.30;79.12
22259;BME280;11298;46.034;14.496;2022-12-26T04:43:59;98784.63;;;11.32;78.78
22259;BME280;11298;46.034;14.496;2022-12-26T04:46:42;98776.47;;;11.32;78.91
22259;BME280;11298;46.034;14.496;2022-12-26T04:49:11;98766.44;;;11.33;78.78
22259;BME280;11298;46.034;14.496;2022-12-26T04:51:59;98778.13;;;11.33;78.74
22259;BME280;11298;46.034;14.496;2022-12-26T04:54:38;98777.31;;;11.33;78.70
22259;BME280;11298;46.034;14.496;2022-12-26T04:57:07;98782.75;;;11.33;78.72
22259;BME280;11298;46.034;14.496;2022-12-26T04:59:36;98786.28;;;11.33;78.50
22259;BME280;11298;46.034;14.496;2022-12-26T05:02:05;98779.81;;;11.34;78.55
22259;BME280;11298;46.034;14.496;2022-12-26T05:04:55;98785.06;;;11.36;78.36
22259;BME280;11298;46.034;14.496;2022-12-26T05:07:42;98783.16;;;11.36;78.17
22259;BME280;11298;46.034;14.496;2022-12-26T05:10:31;98784.84;;;11.37;78.27
22259;BME280;11298;46.034;14.496;2022-12-26T05:12:58;98772.09;;;11.38;78.08
22259;BME280;11298;46.034;14.496;2022-12-26T05:15:28;98788.41;;;11.38;78.13
22259;BME280;11298;46.034;14.496;2022-12-26T05:18:18;98777.53;;;11.38;78.27
22259;BME280;11298;46.034;14.496;2022-12-26T05:21:14;98773.97;;;11.37;78.14
22259;BME280;11298;46.034;14.496;2022-12-26T05:24:07;98782.53;;;11.34;78.30
22259;BME280;11298;46.034;14.496;2022-12-26T05:26:55;98770.00;;;11.33;78.19
22259;BME280;11298;46.034;14.496;2022-12-26T05:29:43;98770.00;;;11.33;78.22
22259;BME280;11298;46.034;14.496;2022-12-26T05:32:10;98781.69;;;11.34;78.38
22259;BME280;11298;46.034;14.496;2022-12-26T05:34:39;98780.03;;;11.33;78.32
22259;BME280;11298;46.034;14.496;2022-12-26T05:37:08;98773.53;;;11.34;78.33
22259;BME280;11298;46.034;14.496;2022-12-26T05:39:38;98787.13;;;11.34;78.39
22259;BME280;11298;46.034;14.496;2022-12-26T05:42:09;98783.78;;;11.32;78.38
22259;BME280;11298;46.034;14.496;2022-12-26T05:44:36;98787.53;;;11.31;78.17
22259;BME280;11298;46.034;14.496;2022-12-26T05:47:04;98782.09;;;11.31;78.33
22259;BME280;11298;46.034;14.496;2022-12-26T05:49:31;98786.69;;;11.30;78.37
22259;BME280;11298;46.034;14.496;2022-12-26T05:52:00;98789.41;;;11.30;78.43
22259;BME280;11298;46.034;14.496;2022-12-26T05:54:27;98789.22;;;11.32;78.53
22259;BME280;11298;46.034;14.496;2022-12-26T05:56:58;98797.38;;;11.32;78.35
22259;BME280;11298;46.034;14.496;2022-12-26T05:59:27;98791.94;;;11.32;78.40
22259;BME280;11298;46.034;14.496;2022-12-26T06:01:56;98801.13;;;11.31;78.43
22259;BME280;11298;46.034;14.496;2022-12-26T06:04:26;98798.41;;;11.31;78.52
22259;BME280;11298;46.034;14.496;2022-12-26T06:06:53;98802.19;;;11.30;78.76
22259;BME280;11298;46.034;14.496;2022-12-26T06:09:22;98806.56;;;11.31;78.60
22259;BME280;11298;46.034;14.496;2022-12-26T06:11:53;98803.22;;;11.29;78.65
22259;BME280;11298;46.034;14.496;2022-12-26T06:14:22;98807.81;;;11.28;79.09
22259;BME280;11298;46.034;14.496;2022-12-26T06:16:49;98811.38;;;11.29;79.02
22259;BME280;11298;46.034;14.496;2022-12-26T06:19:17;98798.63;;;11.29;78.69
22259;BME280;11298;46.034;14.496;2022-12-26T06:21:45;98798.41;;;11.31;78.83
22259;BME280;11298;46.034;14.496;2022-12-26T06:24:12;98794.66;;;11.32;78.99
22259;BME280;11298;46.034;14.496;2022-12-26T06:26:40;98797.56;;;11.30;78.99
22259;BME280;11298;46.034;14.496;2022-12-26T06:29:12;98807.63;;;11.30;79.19
22259;BME280;11298;46.034;14.496;2022-12-26T06:31:42;98800.28;;;11.30;79.05
22259;BME280;11298;46.034;14.496;2022-12-26T06:34:09;98809.28;;;11.31;79.25
22259;BME280;11298;46.034;14.496;2022-12-26T06:36:36;98813.06;;;11.30;79.14
22259;BME280;11298;46.034;14.496;2022-12-26T06:39:04;98807.63;;;11.30;79.37
22259;BME280;11298;46.034;14.496;2022-12-26T06:41:33;98810.34;;;11.30;79.34
22259;BME280;11298;46.034;14.496;2022-12-26T06:44:01;98814.72;;;11.31;79.28
22259;BME280;11298;46.034;14.496;2022-12-26T06:46:28;98821.00;;;11.31;79.34
22259;BME280;11298;46.034;14.496;2022-12-26T06:48:55;98829.38;;;11.30;79.65
22259;BME280;11298;46.034;14.496;2022-12-26T06:51:25;98823.94;;;11.30;79.65
22259;BME280;11298;46.034;14.496;2022-12-26T06:54:05;98835.63;;;11.30;79.79
22259;BME280;11298;46.034;14.496;2022-12-26T06:56:34;98822.88;;;11.31;79.62
22259;BME280;11298;46.034;14.496;2022-12-26T06:59:03;98816.41;;;11.32;79.82
22259;BME280;11298;46.034;14.496;2022-12-26T07:01:33;98825.59;;;11.31;79.64
22259;BME280;11298;46.034;14.496;2022-12-26T07:04:02;98816.41;;;11.32;79.73
22259;BME280;11298;46.034;14.496;2022-12-26T07:06:34;98825.59;;;11.31;79.83
22259;BME280;11298;46.034;14.496;2022-12-26T07:09:07;98831.03;;;11.31;79.92
22259;BME280;11298;46.034;14.496;2022-12-26T07:11:36;98830.84;;;11.32;80.00
22259;BME280;11298;46.034;14.496;2022-12-26T07:14:04;98828.97;;;11.33;80.24
22259;BME280;11298;46.034;14.496;2022-12-26T07:16:34;98835.03;;;11.35;79.94
22259;BME280;11298;46.034;14.496;2022-12-26T07:19:03;98836.91;;;11.34;80.20
22259;BME280;11298;46.034;14.496;2022-12-26T07:21:32;98832.94;;;11.37;80.22
22259;BME280;11298;46.034;14.496;2022-12-26T07:24:18;98841.75;;;11.39;79.90
22259;BME280;11298;46.034;14.496;2022-12-26T07:26:46;98850.53;;;11.41;79.90
22259;BME280;11298;46.034;14.496;2022-12-26T07:29:17;98837.56;;;11.43;80.23
22259;BME280;11298;46.034;14.496;2022-12-26T07:31:46;98840.69;;;11.47;79.95
22259;BME280;11298;46.034;14.496;2022-12-26T07:34:14;98838.63;;;11.49;80.08
22259;BME280;11298;46.034;14.496;2022-12-26T07:36:41;98842.19;;;11.49;79.86
22259;BME280;11298;46.034;14.496;2022-12-26T07:39:11;98830.06;;;11.52;79.75
22259;BME280;11298;46.034;14.496;2022-12-26T07:41:39;98836.13;;;11.54;79.75
22259;BME280;11298;46.034;14.496;2022-12-26T07:44:31;98838.66;;;11.55;79.67
22259;BME280;11298;46.034;14.496;2022-12-26T07:46:59;98844.72;;;11.57;79.50
22259;BME280;11298;46.034;14.496;2022-12-26T07:49:26;98851.63;;;11.60;79.32
22259;BME280;11298;46.034;14.496;2022-12-26T07:51:54;98850.38;;;11.62;79.38
22259;BME280;11298;46.034;14.496;2022-12-26T07:54:21;98846.63;;;11.63;79.12
22259;BME280;11298;46.034;14.496;2022-12-26T07:56:52;98855.41;;;11.65;79.04
22259;BME280;11298;46.034;14.496;2022-12-26T07:59:43;98857.72;;;11.68;79.12
22259;BME280;11298;46.034;14.496;2022-12-26T08:02:11;98861.09;;;11.70;78.90
22259;BME280;11298;46.034;14.496;2022-12-26T08:04:42;98850.84;;;11.72;78.63
22259;BME280;11298;46.034;14.496;2022-12-26T08:07:11;98854.19;;;11.74;78.59
22259;BME280;11298;46.034;14.496;2022-12-26T08:09:38;98871.19;;;11.77;78.54
22259;BME280;11298;46.034;14.496;2022-12-26T08:12:17;98866.34;;;11.79;78.46
22259;BME280;11298;46.034;14.496;2022-12-26T08:14:49;98869.72;;;11.81;78.50
22259;BME280;11298;46.034;14.496;2022-12-26T08:17:20;98870.53;;;11.81;78.38
22259;BME280;11298;46.034;14.496;2022-12-26T08:19:47;98872.03;;;11.84;78.24
22259;BME280;11298;46.034;14.496;2022-12-26T08:22:18;98873.69;;;11.85;78.30
22259;BME280;11298;46.034;14.496;2022-12-26T08:24:44;98871.81;;;11.85;78.29
22259;BME280;11298;46.034;14.496;2022-12-26T08:27:13;98875.38;;;11.86;78.07
22259;BME280;11298;46.034;14.496;2022-12-26T08:29:46;98872.66;;;11.86;77.87
22259;BME280;11298;46.034;14.496;2022-12-26T08:32:14;98872.66;;;11.86;77.90
22259;BME280;11298;46.034;14.496;2022-12-26T08:34:43;98870.97;;;11.85;77.82
22259;BME280;11298;46.034;14.496;2022-12-26T08:37:10;98883.53;;;11.86;77.94
22259;BME280;11298;46.034;14.496;2022-12-26T08:42:34;98887.31;;;11.91;77.56
22259;BME280;11298;46.034;14.496;2022-12-26T08:45:16;98891.53;;;11.94;77.74
22259;BME280;11298;46.034;14.496;2022-12-26T08:47:47;98896.13;;;11.93;77.63
22259;BME280;11298;46.034;14.496;2022-12-26T08:50:14;98908.88;;;11.93;77.53
22259;BME280;11298;46.034;14.496;2022-12-26T08:52:43;98903.44;;;11.93;77.41
22259;BME280;11298;46.034;14.496;2022-12-26T08:55:09;98902.81;;;11.91;77.56
22259;BME280;11298;46.034;14.496;2022-12-26T08:57:41;98901.13;;;11.90;77.43
22259;BME280;11298;46.034;14.496;2022-12-26T09:00:09;98913.91;;;11.89;77.62
22259;BME280;11298;46.034;14.496;2022-12-26T09:02:40;98913.69;;;11.91;77.52
22259;BME280;11298;46.034;14.496;2022-12-26T09:05:10;98928.34;;;11.90;77.48
22259;BME280;11298;46.034;14.496;2022-12-26T09:07:38;98912.03;;;11.90;77.38
22259;BME280;11298;46.034;14.496;2022-12-26T09:10:10;98915.78;;;11.89;77.45
22259;BME280;11298;46.034;14.496;2022-12-26T09:12:38;98922.91;;;11.90;77.55
22259;BME280;11298;46.034;14.496;2022-12-26T09:15:06;98932.13;;;11.89;77.46
22259;BME280;11298;46.034;14.496;2022-12-26T09:17:34;98918.09;;;11.92;77.62
22259;BME280;11298;46.034;14.496;2022-12-26T09:20:02;98925.03;;;11.94;77.55
22259;BME280;11298;46.034;14.496;2022-12-26T09:22:30;98923.13;;;11.95;77.54
22259;BME280;11298;46.034;14.496;2022-12-26T09:25:22;98925.03;;;11.94;77.70
22259;BME280;11298;46.034;14.496;2022-12-26T09:28:00;98921.47;;;11.94;77.48
22259;BME280;11298;46.034;14.496;2022-12-26T09:30:27;98926.91;;;11.94;77.79
22259;BME280;11298;46.034;14.496;2022-12-26T09:32:56;98914.34;;;11.93;77.59
22259;BME280;11298;46.034;14.496;2022-12-26T09:35:28;98923.53;;;11.92;77.78
22259;BME280;11298;46.034;14.496;2022-12-26T09:37:56;98910.78;;;11.92;77.63
22259;BME280;11298;46.034;14.496;2022-12-26T09:40:26;98914.34;;;11.93;77.69
22259;BME280;11298;46.034;14.496;2022-12-26T09:43:06;98908.88;;;11.93;77.60
22259;BME280;11298;46.034;14.496;2022-12-26T09:45:48;98906.16;;;11.93;77.61
22259;BME280;11298;46.034;14.496;2022-12-26T09:48:31;98903.88;;;11.96;77.94
22259;BME280;11298;46.034;14.496;2022-12-26T09:51:02;98909.13;;;11.98;77.64
22259;BME280;11298;46.034;14.496;2022-12-26T09:56:06;98909.13;;;12.04;77.69
22259;BME280;11298;46.034;14.496;2022-12-26T09:58:56;98895.75;;;12.10;77.82
22259;BME280;11298;46.034;14.496;2022-12-26T10:01:33;98898.28;;;12.11;77.68
22259;BME280;11298;46.034;14.496;2022-12-26T10:04:19;98896.16;;;12.13;77.54
22259;BME280;11298;46.034;14.496;2022-12-26T10:09:40;98898.25;;;12.18;77.50
22259;BME280;11298;46.034;14.496;2022-12-26T10:12:36;98897.84;;;12.21;77.43
22259;BME280;11298;46.034;14.496;2022-12-26T10:23:36;98887.00;;;12.47;77.02
22259;BME280;11298;46.034;14.496;2022-12-26T10:26:11;98889.47;;;12.49;76.82
22259;BME280;11298;46.034;14.496;2022-12-26T10:28:52;98891.38;;;12.48;76.80
22259;BME280;11298;46.034;14.496;2022-12-26T10:34:03;98882.38;;;12.61;76.75
22259;BME280;11298;46.034;14.496;2022-12-26T10:36:39;98880.91;;;12.71;76.36
22259;BME280;11298;46.034;14.496;2022-12-26T10:39:31;98870.84;;;12.79;76.29
22259;BME280;11298;46.034;14.496;2022-12-26T10:42:02;98860.09;;;12.90;76.22
22259;BME280;11298;46.034;14.496;2022-12-26T10:44:41;98867.66;;;12.95;75.87
22259;BME280;11298;46.034;14.496;2022-12-26T10:49:44;98854.19;;;13.06;75.60
22259;BME280;11298;46.034;14.496;2022-12-26T10:52:13;98858.41;;;13.09;75.50
22259;BME280;11298;46.034;14.496;2022-12-26T10:54:44;98858.41;;;13.02;75.15
22259;BME280;11298;46.034;14.496;2022-12-26T10:57:14;98853.81;;;12.96;75.16
22259;BME280;11298;46.034;14.496;2022-12-26T10:59:47;98857.56;;;12.95;75.13
22259;BME280;11298;46.034;14.496;2022-12-26T11:02:30;98855.06;;;13.00;75.09
22259;BME280;11298;46.034;14.496;2022-12-26T11:04:59;98860.28;;;13.08;74.94
22259;BME280;11298;46.034;14.496;2022-12-26T11:07:54;98850.84;;;13.04;74.66
22259;BME280;11298;46.034;14.496;2022-12-26T11:10:25;98848.34;;;13.03;74.70
22259;BME280;11298;46.034;14.496;2022-12-26T11:13:04;98864.28;;;12.99;74.55
22259;BME280;11298;46.034;14.496;2022-12-26T11:15:38;98863.66;;;12.97;74.79
22259;BME280;11298;46.034;14.496;2022-12-26T11:18:19;98856.31;;;12.91;74.68
22259;BME280;11298;46.034;14.496;2022-12-26T11:20:48;98860.94;;;12.91;74.79
22259;BME280;11298;46.034;14.496;2022-12-26T11:23:25;98856.75;;;12.88;74.87
22259;BME280;11298;46.034;14.496;2022-12-26T11:25:54;98856.34;;;12.85;75.04
22259;BME280;11298;46.034;14.496;2022-12-26T11:28:28;98852.38;;;12.81;75.17
22259;BME280;11298;46.034;14.496;2022-12-26T11:31:04;98853.84;;;12.77;75.09
22259;BME280;11298;46.034;14.496;2022-12-26T11:39:06;98857.16;;;12.85;75.52
22259;BME280;11298;46.034;14.496;2022-12-26T11:41:45;98854.06;;;12.75;75.51
22259;BME280;11298;46.034;14.496;2022-12-26T11:49:27;98841.72;;;12.59;76.07
22259;BME280;11298;46.034;14.496;2022-12-26T11:51:57;98844.63;;;12.58;76.25
22259;BME280;11298;46.034;14.496;2022-12-26T11:54:28;98832.50;;;12.54;76.26
22259;BME280;11298;46.034;14.496;2022-12-26T11:57:01;98838.78;;;12.48;76.50
22259;BME280;11298;46.034;14.496;2022-12-26T11:59:29;98837.34;;;12.45;76.71
22259;BME280;11298;46.034;14.496;2022-12-26T12:04:48;98840.47;;;12.42;77.20
22259;BME280;11298;46.034;14.496;2022-12-26T12:10:11;98820.38;;;12.36;77.49
22259;BME280;11298;46.034;14.496;2022-12-26T12:13:00;98824.13;;;12.35;77.47
22259;BME280;11298;46.034;14.496;2022-12-26T12:29:11;98814.72;;;12.31;78.55
22259;BME280;11298;46.034;14.496;2022-12-26T12:31:58;98802.97;;;12.31;78.70
22259;BME280;11298;46.034;14.496;2022-12-26T12:39:51;98809.06;;;12.33;78.96
22259;BME280;11298;46.034;14.496;2022-12-26T12:42:32;98803.41;;;12.34;78.99
22259;BME280;11298;46.034;14.496;2022-12-26T12:52:59;98779.72;;;12.35;79.28
22259;BME280;11298;46.034;14.496;2022-12-26T12:55:50;98777.84;;;12.35;79.54
22259;BME280;11298;46.034;14.496;2022-12-26T13:01:11;98778.69;;;12.36;79.45
22259;BME280;11298;46.034;14.496;2022-12-26T13:03:46;98777.00;;;12.35;79.83
22259;BME280;11298;46.034;14.496;2022-12-26T13:08:56;98781.41;;;12.36;79.69
22259;BME280;11298;46.034;14.496;2022-12-26T13:11:26;98780.56;;;12.35;79.94
22259;BME280;11298;46.034;14.496;2022-12-26T13:14:00;98775.97;;;12.36;79.89
22259;BME280;11298;46.034;14.496;2022-12-26T13:16:30;98783.28;;;12.35;80.14
22259;BME280;11298;46.034;14.496;2022-12-26T13:18:59;98791.47;;;12.35;79.99
22259;BME280;11298;46.034;14.496;2022-12-26T13:21:28;98796.06;;;12.35;80.17
22259;BME280;11298;46.034;14.496;2022-12-26T13:24:01;98782.66;;;12.33;80.30
22259;BME280;11298;46.034;14.496;2022-12-26T13:31:45;98782.25;;;12.30;80.83
22259;BME280;11298;46.034;14.496;2022-12-26T13:34:16;98785.16;;;12.28;80.61
22259;BME280;11298;46.034;14.496;2022-12-26T13:36:48;98790.41;;;12.30;81.01
22259;BME280;11298;46.034;14.496;2022-12-26T13:41:53;98778.88;;;12.28;81.00
22259;BME280;11298;46.034;14.496;2022-12-26T13:44:39;98781.81;;;12.26;81.29
22259;BME280;11298;46.034;14.496;2022-12-26T13:47:28;98778.47;;;12.24;81.20
22259;BME280;11298;46.034;14.496;2022-12-26T13:49:52;98774.69;;;12.25;81.00
22259;BME280;11298;46.034;14.496;2022-12-26T13:52:23;98778.88;;;12.28;80.95
22259;BME280;11298;46.034;14.496;2022-12-26T14:14:00;98769.66;;;12.22;81.18
22259;BME280;11298;46.034;14.496;2022-12-26T14:21:52;98766.75;;;12.17;81.28
22259;BME280;11298;46.034;14.496;2022-12-26T14:24:40;98770.31;;;12.18;81.19
22259;BME280;11298;46.034;14.496;2022-12-26T14:27:27;98763.81;;;12.19;81.19
22259;BME280;11298;46.034;14.496;2022-12-26T14:32:50;98766.13;;;12.15;81.20
22259;BME280;11298;46.034;14.496;2022-12-26T14:35:51;98771.34;;;12.17;81.22
22259;BME280;11298;46.034;14.496;2022-12-26T14:38:17;98774.50;;;12.20;81.17
22259;BME280;11298;46.034;14.496;2022-12-26T14:41:03;98773.84;;;12.18;81.13
22259;BME280;11298;46.034;14.496;2022-12-26T14:43:32;98772.81;;;12.19;81.06
22259;BME280;11298;46.034;14.496;2022-12-26T14:45:59;98777.63;;;12.17;81.20
22259;BME280;11298;46.034;14.496;2022-12-26T14:50:54;98771.16;;;12.12;81.34
22259;BME280;11298;46.034;14.496;2022-12-26T14:53:41;98763.84;;;12.12;81.27
22259;BME280;11298;46.034;14.496;2022-12-26T14:58:42;98775.97;;;12.10;81.39
22259;BME280;11298;46.034;14.496;2022-12-26T15:17:07;98768.00;;;11.95;81.76
22259;BME280;11298;46.034;14.496;2022-12-26T15:19:45;98727.59;;;11.79;81.78
22259;BME280;11298;46.034;14.496;2022-12-26T15:25:10;98770.31;;;11.98;81.93
22259;BME280;11298;46.034;14.496;2022-12-26T15:36:03;98777.22;;;12.00;82.01
22259;BME280;11298;46.034;14.496;2022-12-26T15:41:18;98776.38;;;12.00;82.23
22259;BME280;11298;46.034;14.496;2022-12-26T15:46:30;98779.72;;;11.95;82.56
22259;BME280;11298;46.034;14.496;2022-12-26T15:49:12;98770.09;;;11.93;82.52
22259;BME280;11298;46.034;14.496;2022-12-26T15:54:25;98774.28;;;11.89;82.68
22259;BME280;11298;46.034;14.496;2022-12-26T16:02:43;98768.00;;;11.82;83.33
22259;BME280;11298;46.034;14.496;2022-12-26T16:08:02;98767.81;;;11.77;83.66
22259;BME280;11298;46.034;14.496;2022-12-26T16:10:33;98763.38;;;11.75;83.82
22259;BME280;11298;46.034;14.496;2022-12-26T16:15:26;98763.38;;;11.75;84.18
22259;BME280;11298;46.034;14.496;2022-12-26T16:18:11;98754.38;;;11.75;84.05
22259;BME280;11298;46.034;14.496;2022-12-26T16:20:38;98760.03;;;11.73;84.17
22259;BME280;11298;46.034;14.496;2022-12-26T16:23:24;98754.59;;;11.73;84.43
22259;BME280;11298;46.034;14.496;2022-12-26T16:25:53;98752.91;;;11.72;84.48
22259;BME280;11298;46.034;14.496;2022-12-26T16:28:24;98749.56;;;11.70;84.66
22259;BME280;11298;46.034;14.496;2022-12-26T16:30:52;98754.16;;;11.70;84.85
22259;BME280;11298;46.034;14.496;2022-12-26T16:33:19;98760.63;;;11.69;85.12
22259;BME280;11298;46.034;14.496;2022-12-26T16:35:46;98749.75;;;11.69;85.25
22259;BME280;11298;46.034;14.496;2022-12-26T16:38:16;98759.19;;;11.66;85.30
22259;BME280;11298;46.034;14.496;2022-12-26T16:40:45;98755.41;;;11.67;85.59
22259;BME280;11298;46.034;14.496;2022-12-26T16:45:45;98759.81;;;11.68;85.86
22259;BME280;11298;46.034;14.496;2022-12-26T16:48:13;98760.84;;;11.67;86.09
22259;BME280;11298;46.034;14.496;2022-12-26T16:50:45;98749.97;;;11.67;86.21
22259;BME280;11298;46.034;14.496;2022-12-26T16:53:14;98753.94;;;11.71;86.36
22259;BME280;11298;46.034;14.496;2022-12-26T16:55:45;98750.19;;;11.72;86.30
22259;BME280;11298;46.034;14.496;2022-12-26T16:58:15;98747.47;;;11.72;86.48
22259;BME280;11298;46.034;14.496;2022-12-26T17:00:46;98749.16;;;11.73;86.31
22259;BME280;11298;46.034;14.496;2022-12-26T17:03:25;98751.66;;;11.75;86.52
22259;BME280;11298;46.034;14.496;2022-12-26T17:05:54;98752.69;;;11.74;86.54